createdAt,value
2022-09-21T00:01:29.379Z,94.50
2022-09-21T00:03:59.460Z,94.50
2022-09-21T00:06:28.315Z,94.50
2022-09-21T00:08:58.153Z,94.50
2022-09-21T00:11:29.976Z,94.60
2022-09-21T00:14:04.634Z,94.70
2022-09-21T00:16:32.437Z,94.70
2022-09-21T00:19:00.500Z,94.80
2022-09-21T00:21:28.479Z,94.80
2022-09-21T00:23:56.180Z,94.80
2022-09-21T00:26:25.756Z,94.90
2022-09-21T00:29:02.612Z,94.90
2022-09-21T00:31:31.359Z,94.90
2022-09-21T00:34:00.309Z,95.00
2022-09-21T00:36:28.356Z,95.00
2022-09-21T00:38:58.709Z,94.90
2022-09-21T00:41:26.917Z,95.30
2022-09-21T00:44:28.533Z,94.80
2022-09-21T00:47:02.306Z,95.00
2022-09-21T00:49:30.800Z,95.40
2022-09-21T00:51:59.241Z,95.00
2022-09-21T00:54:31.051Z,95.40
2022-09-21T00:57:03.010Z,94.90
2022-09-21T00:59:36.602Z,95.00
2022-09-21T01:02:06.347Z,95.00
2022-09-21T01:04:34.724Z,95.10
2022-09-21T01:07:07.587Z,95.20
2022-09-21T01:09:35.445Z,95.20
2022-09-21T01:12:18.460Z,95.20
2022-09-21T01:14:57.152Z,95.10
2022-09-21T01:17:36.541Z,95.10
2022-09-21T01:20:24.769Z,95.10
2022-09-21T01:23:24.239Z,95.20
2022-09-21T01:26:21.002Z,95.40
2022-09-21T01:29:00.370Z,95.70
2022-09-21T01:31:39.867Z,96.30
2022-09-21T01:34:30.368Z,97.20
2022-09-21T01:37:00.290Z,98.80
2022-09-21T01:39:29.655Z,99.60
2022-09-21T01:41:58.800Z,99.90
2022-09-21T01:44:33.243Z,99.90
2022-09-21T01:47:03.318Z,99.10
2022-09-21T01:49:36.552Z,99.00
2022-09-21T01:52:28.066Z,98.80
2022-09-21T01:55:01.345Z,98.50
2022-09-21T01:57:40.520Z,98.50
2022-09-21T02:00:08.611Z,99.00
2022-09-21T02:02:53.263Z,99.90
2022-09-21T02:05:24.103Z,99.90
2022-09-21T02:07:53.330Z,99.90
2022-09-21T02:10:30.419Z,99.90
2022-09-21T02:13:01.656Z,99.90
2022-09-21T02:15:46.333Z,99.90
2022-09-21T02:18:40.342Z,99.90
2022-09-21T02:21:25.165Z,99.90
2022-09-21T02:24:07.586Z,99.90
2022-09-21T02:26:43.379Z,99.90
2022-09-21T02:29:33.450Z,99.90
2022-09-21T02:32:24.438Z,99.90
2022-09-21T02:35:08.218Z,99.90
2022-09-21T02:37:49.654Z,99.90
2022-09-21T02:40:30.967Z,99.90
2022-09-21T02:43:07.910Z,99.90
2022-09-21T02:45:45.235Z,99.90
2022-09-21T02:48:18.318Z,99.90
2022-09-21T02:50:50.356Z,99.90
2022-09-21T02:53:24.063Z,99.90
2022-09-21T02:55:56.460Z,99.90
2022-09-21T02:58:27.370Z,99.90
2022-09-21T03:00:57.850Z,99.90
2022-09-21T03:03:26.309Z,99.90
2022-09-21T03:05:55.316Z,99.90
2022-09-21T03:08:22.815Z,99.90
2022-09-21T03:10:50.820Z,99.90
2022-09-21T03:13:18.928Z,99.90
2022-09-21T03:15:47.214Z,99.90
2022-09-21T03:18:15.144Z,99.90
2022-09-21T03:20:46.177Z,99.90
2022-09-21T03:23:14.258Z,99.90
2022-09-21T03:25:45.464Z,99.90
2022-09-21T03:28:14.388Z,99.90
2022-09-21T03:30:42.627Z,99.90
2022-09-21T03:33:10.182Z,99.90
2022-09-21T03:35:37.909Z,99.90
2022-09-21T03:38:05.983Z,99.90
2022-09-21T03:40:33.671Z,99.90
2022-09-21T03:43:01.105Z,99.90
2022-09-21T03:45:28.681Z,99.90
2022-09-21T03:48:00.355Z,99.90
2022-09-21T03:50:29.160Z,99.90
2022-09-21T03:52:57.326Z,99.90
2022-09-21T03:55:25.198Z,99.90
2022-09-21T03:57:52.780Z,99.90
2022-09-21T04:00:20.279Z,99.90
2022-09-21T04:02:48.747Z,99.90
2022-09-21T04:05:17.466Z,99.90
2022-09-21T04:07:45.857Z,99.90
2022-09-21T04:10:16.312Z,99.90
2022-09-21T04:12:44.890Z,99.90
2022-09-21T04:15:14.476Z,99.90
2022-09-21T04:17:41.879Z,99.90
2022-09-21T04:20:09.812Z,99.90
2022-09-21T04:22:41.229Z,99.90
2022-09-21T04:25:10.906Z,99.90
2022-09-21T04:27:38.331Z,99.90
2022-09-21T04:30:06.551Z,99.90
2022-09-21T04:32:33.917Z,99.90
2022-09-21T04:35:01.313Z,99.90
2022-09-21T04:37:28.671Z,99.90
2022-09-21T04:39:56.094Z,99.90
2022-09-21T04:42:23.491Z,99.90
2022-09-21T04:44:51.455Z,99.90
2022-09-21T04:47:19.450Z,99.90
2022-09-21T04:49:46.787Z,99.90
2022-09-21T04:52:18.883Z,99.90
2022-09-21T04:54:47.790Z,99.90
2022-09-21T04:57:15.425Z,99.90
2022-09-21T04:59:42.892Z,99.90
2022-09-21T05:02:10.255Z,99.90
2022-09-21T05:04:37.603Z,99.90
2022-09-21T05:07:05.160Z,99.90
2022-09-21T05:09:50.878Z,99.90
2022-09-21T05:12:18.237Z,99.90
2022-09-21T05:14:45.719Z,99.90
2022-09-21T05:17:13.282Z,99.90
2022-09-21T05:19:41.219Z,99.90
2022-09-21T05:22:08.899Z,99.90
2022-09-21T05:24:36.277Z,99.90
2022-09-21T05:27:03.703Z,99.90
2022-09-21T05:29:31.466Z,99.90
2022-09-21T05:32:27.306Z,99.90
2022-09-21T05:35:07.045Z,99.90
2022-09-21T05:37:50.668Z,99.90
2022-09-21T05:40:18.461Z,99.90
2022-09-21T05:42:46.244Z,99.90
2022-09-21T05:45:16.729Z,99.90
2022-09-21T05:47:59.282Z,99.90
2022-09-21T05:50:46.460Z,99.90
2022-09-21T05:53:40.927Z,99.90
2022-09-21T05:56:23.904Z,99.90
2022-09-21T05:59:13.220Z,99.90
2022-09-21T06:02:22.414Z,99.90
2022-09-21T06:04:51.642Z,99.90
2022-09-21T06:07:19.005Z,99.90
2022-09-21T06:09:46.390Z,99.90
2022-09-21T06:12:13.803Z,99.90
2022-09-21T06:14:41.153Z,99.90
2022-09-21T06:17:08.491Z,99.90
2022-09-21T06:19:35.871Z,99.90
2022-09-21T06:22:03.346Z,99.90
2022-09-21T06:24:30.743Z,99.90
2022-09-21T06:26:58.092Z,99.70
2022-09-21T06:29:25.489Z,99.20
2022-09-21T06:31:52.923Z,99.20
2022-09-21T06:34:20.352Z,99.80
2022-09-21T06:36:47.740Z,99.80
2022-09-21T06:39:15.116Z,99.90
2022-09-21T06:41:42.515Z,99.60
2022-09-21T06:44:10.929Z,99.00
2022-09-21T06:46:38.405Z,99.40
2022-09-21T06:49:06.169Z,98.90
2022-09-21T06:51:33.515Z,99.10
2022-09-21T06:54:01.391Z,98.50
2022-09-21T06:56:28.798Z,98.40
2022-09-21T06:58:56.665Z,98.10
2022-09-21T07:01:24.667Z,99.00
2022-09-21T07:03:52.778Z,98.70
2022-09-21T07:06:20.549Z,98.90
2022-09-21T07:11:35.995Z,98.30
2022-09-21T07:14:04.324Z,97.60
2022-09-21T07:16:31.826Z,97.50
2022-09-21T07:19:10.092Z,97.10
2022-09-21T07:21:39.073Z,96.40
2022-09-21T07:24:11.743Z,95.40
2022-09-21T07:26:39.963Z,95.40
2022-09-21T07:29:07.543Z,94.40
2022-09-21T07:31:35.238Z,93.90
2022-09-21T07:34:02.673Z,92.70
2022-09-21T07:36:30.057Z,92.10
2022-09-21T07:38:57.503Z,92.10
2022-09-21T07:41:25.023Z,92.20
2022-09-21T07:43:53.168Z,91.50
2022-09-21T07:46:20.697Z,90.70
2022-09-21T07:48:48.087Z,90.70
2022-09-21T07:51:16.041Z,90.50
2022-09-21T07:53:45.383Z,90.70
2022-09-21T07:56:17.669Z,90.10
2022-09-21T07:59:03.567Z,89.90
2022-09-21T08:01:32.036Z,89.90
2022-09-21T08:03:59.720Z,89.90
2022-09-21T08:06:30.346Z,90.00
2022-09-21T08:08:58.261Z,90.00
2022-09-21T08:11:27.561Z,89.00
2022-09-21T08:14:00.821Z,89.30
2022-09-21T08:16:29.700Z,88.90
2022-09-21T08:18:57.436Z,87.90
2022-09-21T08:21:24.822Z,88.40
2022-09-21T08:23:52.246Z,87.70
2022-09-21T08:26:20.656Z,87.60
2022-09-21T08:28:51.235Z,87.10
2022-09-21T08:31:24.239Z,86.30
2022-09-21T08:33:53.059Z,87.20
2022-09-21T08:36:20.888Z,85.30
2022-09-21T08:38:48.488Z,84.50
2022-09-21T08:41:41.476Z,83.10
2022-09-21T08:44:29.732Z,84.60
2022-09-21T08:47:19.681Z,81.20
2022-09-21T08:49:55.192Z,81.10
2022-09-21T08:52:25.001Z,80.10
2022-09-21T08:54:58.510Z,80.50
2022-09-21T08:57:30.397Z,77.60
2022-09-21T09:00:00.513Z,78.80
2022-09-21T09:02:30.603Z,78.20
2022-09-21T09:05:23.764Z,79.60
2022-09-21T09:08:15.518Z,78.60
2022-09-21T09:11:07.570Z,81.20
2022-09-21T09:14:02.767Z,80.80
2022-09-21T09:16:36.256Z,80.30
2022-09-21T09:19:06.700Z,78.80
2022-09-21T09:21:42.781Z,78.70
2022-09-21T09:24:19.611Z,78.80
2022-09-21T09:26:55.487Z,80.00
2022-09-21T09:29:47.500Z,78.30
2022-09-21T09:32:17.271Z,79.80
2022-09-21T09:35:27.998Z,78.30
2022-09-21T09:38:05.702Z,78.70
2022-09-21T09:41:02.560Z,79.90
2022-09-21T09:43:51.488Z,79.30
2022-09-21T09:47:02.763Z,80.20
2022-09-21T09:50:02.111Z,77.40
2022-09-21T09:52:30.872Z,79.50
2022-09-21T09:55:14.146Z,78.40
2022-09-21T09:57:41.822Z,80.00
2022-09-21T10:00:14.553Z,79.90
2022-09-21T10:02:56.429Z,79.00
2022-09-21T10:05:31.627Z,80.70
2022-09-21T10:07:59.458Z,80.10
2022-09-21T10:10:32.753Z,82.00
2022-09-21T10:13:24.075Z,82.60
2022-09-21T10:16:06.345Z,80.90
2022-09-21T10:19:07.517Z,81.00
2022-09-21T10:21:41.240Z,82.10
2022-09-21T10:24:23.587Z,80.40
2022-09-21T10:27:07.451Z,80.00
2022-09-21T10:29:43.897Z,80.30
2022-09-21T10:32:15.119Z,79.80
2022-09-21T10:35:03.440Z,77.50
2022-09-21T10:37:37.424Z,78.90
2022-09-21T10:40:22.525Z,79.00
2022-09-21T10:42:55.390Z,79.40
2022-09-21T10:45:26.743Z,80.60
2022-09-21T10:47:58.935Z,78.90
2022-09-21T10:50:28.247Z,81.00
2022-09-21T10:53:12.303Z,80.60
2022-09-21T10:56:04.921Z,79.80
2022-09-21T10:58:36.071Z,79.90
2022-09-21T11:01:21.450Z,80.30
2022-09-21T11:03:58.590Z,79.00
2022-09-21T11:06:30.219Z,79.80
2022-09-21T11:09:09.596Z,79.00
2022-09-21T11:11:59.496Z,79.40
2022-09-21T11:15:00.135Z,80.30
2022-09-21T11:17:51.354Z,78.90
2022-09-21T11:20:37.154Z,79.50
2022-09-21T11:23:29.078Z,77.50
2022-09-21T11:26:03.785Z,75.10
2022-09-21T11:28:49.018Z,75.40
2022-09-21T11:31:22.346Z,76.50
2022-09-21T11:34:46.981Z,72.00
2022-09-21T11:37:33.063Z,71.80
2022-09-21T11:40:28.863Z,69.60
2022-09-21T11:43:24.191Z,71.70
2022-09-21T11:45:51.585Z,71.40
2022-09-21T11:48:56.371Z,70.60
2022-09-21T11:51:39.522Z,70.70
2022-09-21T11:54:26.122Z,68.90
2022-09-21T11:57:03.066Z,70.00
2022-09-21T11:59:54.554Z,68.00
2022-09-21T12:02:28.593Z,67.50
2022-09-21T12:05:04.417Z,66.50
2022-09-21T12:07:54.350Z,67.00
2022-09-21T12:10:34.515Z,67.00
2022-09-21T12:13:34.281Z,66.80
2022-09-21T12:16:07.797Z,68.60
2022-09-21T12:18:50.233Z,67.20
2022-09-21T12:21:23.086Z,65.90
2022-09-21T12:23:53.241Z,66.50
2022-09-21T12:26:29.754Z,67.90
2022-09-21T12:29:19.562Z,66.30
2022-09-21T12:32:05.209Z,65.80
2022-09-21T12:34:43.186Z,66.30
2022-09-21T12:37:23.686Z,67.00
2022-09-21T12:40:23.176Z,69.60
2022-09-21T12:43:03.766Z,68.70
2022-09-21T12:45:56.278Z,65.40
2022-09-21T12:48:33.921Z,64.40
2022-09-21T12:51:12.432Z,65.60
2022-09-21T12:53:48.484Z,67.50
2022-09-21T12:56:27.957Z,67.30
2022-09-21T12:59:22.362Z,68.70
2022-09-21T13:01:57.791Z,66.20
2022-09-21T13:04:31.216Z,65.80
2022-09-21T13:07:04.478Z,64.40
2022-09-21T13:09:32.458Z,63.70
2022-09-21T13:12:01.751Z,65.00
2022-09-21T13:14:34.737Z,65.40
2022-09-21T13:17:04.951Z,65.90
2022-09-21T13:19:35.808Z,65.40
2022-09-21T13:22:25.841Z,62.70
2022-09-21T13:25:05.105Z,64.70
2022-09-21T13:28:19.650Z,64.00
2022-09-21T13:31:37.130Z,63.10
2022-09-21T13:34:37.142Z,62.60
2022-09-21T13:37:19.514Z,67.40
2022-09-21T13:40:02.018Z,61.90
2022-09-21T13:42:35.102Z,64.00
2022-09-21T13:45:13.658Z,62.40
2022-09-21T13:47:42.937Z,61.10
2022-09-21T13:50:24.498Z,62.30
2022-09-21T13:52:55.502Z,61.40
2022-09-21T13:55:33.332Z,64.40
2022-09-21T13:58:07.911Z,61.30
2022-09-21T14:00:41.839Z,60.40
2022-09-21T14:03:23.322Z,64.00
2022-09-21T14:06:05.610Z,62.70
2022-09-21T14:08:58.023Z,61.20
2022-09-21T14:11:40.877Z,62.10
2022-09-21T14:14:15.517Z,64.60
2022-09-21T14:16:44.610Z,61.30
2022-09-21T14:19:17.825Z,62.60
2022-09-21T14:22:03.641Z,61.80
2022-09-21T14:24:45.408Z,62.30
2022-09-21T14:27:19.266Z,65.80
2022-09-21T14:29:54.203Z,62.70
2022-09-21T14:32:24.907Z,63.70
2022-09-21T14:34:57.137Z,64.50
2022-09-21T14:37:39.383Z,64.80
2022-09-21T14:40:26.327Z,65.40
2022-09-21T14:42:55.602Z,63.80
2022-09-21T14:45:37.328Z,64.40
2022-09-21T14:48:20.767Z,64.40
2022-09-21T14:50:58.551Z,64.40
2022-09-21T14:53:54.131Z,64.40
2022-09-21T14:56:55.585Z,65.50
2022-09-21T14:59:50.672Z,64.10
2022-09-21T15:02:25.379Z,63.70
2022-09-21T15:05:11.827Z,64.20
2022-09-21T15:08:40.235Z,64.20
2022-09-21T15:11:56.285Z,65.00
2022-09-21T15:14:40.171Z,66.10
2022-09-21T15:17:25.287Z,68.70
2022-09-21T15:19:59.206Z,65.10
2022-09-21T15:22:27.934Z,66.00
2022-09-21T15:24:59.071Z,65.50
2022-09-21T15:27:36.191Z,66.70
2022-09-21T15:30:06.383Z,64.20
2022-09-21T15:32:42.785Z,68.00
2022-09-21T15:35:16.162Z,66.60
2022-09-21T15:37:45.744Z,66.10
2022-09-21T15:40:18.272Z,65.50
2022-09-21T15:43:18.925Z,64.60
2022-09-21T15:46:07.446Z,65.50
2022-09-21T15:48:39.790Z,68.80
2022-09-21T15:51:19.787Z,65.40
2022-09-21T15:53:52.118Z,66.10
2022-09-21T15:56:25.912Z,66.90
2022-09-21T15:59:08.478Z,68.10
2022-09-21T16:01:58.295Z,66.60
2022-09-21T16:04:27.996Z,68.50
2022-09-21T16:07:07.418Z,68.80
2022-09-21T16:09:42.818Z,67.70
2022-09-21T16:12:32.767Z,67.00
2022-09-21T16:15:34.299Z,65.90
2022-09-21T16:18:05.215Z,68.20
2022-09-21T16:20:48.255Z,68.20
2022-09-21T16:23:25.550Z,67.70
2022-09-21T16:26:01.370Z,69.30
2022-09-21T16:28:36.870Z,69.60
2022-09-21T16:31:26.299Z,70.40
2022-09-21T16:34:21.593Z,68.90
2022-09-21T16:36:51.300Z,70.30
2022-09-21T16:39:19.813Z,70.20
2022-09-21T16:42:00.954Z,69.60
2022-09-21T16:44:31.473Z,70.30
2022-09-21T16:47:01.702Z,70.70
2022-09-21T16:49:32.670Z,71.30
2022-09-21T16:52:01.382Z,71.10
2022-09-21T16:54:29.439Z,71.60
2022-09-21T16:57:00.175Z,72.30
2022-09-21T16:59:28.502Z,72.20
2022-09-21T17:01:58.144Z,72.70
2022-09-21T17:04:28.763Z,72.60
2022-09-21T17:06:56.599Z,71.90
2022-09-21T17:09:29.159Z,72.90
2022-09-21T17:12:01.164Z,72.10
2022-09-21T17:14:34.040Z,72.80
2022-09-21T17:17:08.522Z,72.80
2022-09-21T17:19:36.121Z,73.50
2022-09-21T17:22:05.406Z,74.20
2022-09-21T17:24:49.750Z,74.00
2022-09-21T17:27:22.890Z,74.00
2022-09-21T17:29:50.526Z,74.50
2022-09-21T17:32:20.955Z,75.20
2022-09-21T17:35:09.565Z,75.00
2022-09-21T17:37:38.154Z,75.20
2022-09-21T17:40:10.717Z,76.10
2022-09-21T17:42:41.114Z,76.30
2022-09-21T17:45:20.494Z,76.80
2022-09-21T17:47:50.279Z,77.50
2022-09-21T17:50:23.806Z,77.10
2022-09-21T17:53:10.616Z,76.60
2022-09-21T17:55:39.720Z,78.00
2022-09-21T17:58:34.461Z,77.20
2022-09-21T18:01:04.616Z,77.40
2022-09-21T18:03:35.972Z,77.80
2022-09-21T18:06:04.524Z,78.20
2022-09-21T18:08:36.032Z,77.90
2022-09-21T18:11:22.308Z,78.90
2022-09-21T18:13:59.455Z,78.90
2022-09-21T18:16:34.332Z,79.50
2022-09-21T18:19:13.053Z,79.80
2022-09-21T18:21:43.889Z,80.40
2022-09-21T18:24:30.976Z,80.60
2022-09-21T18:26:59.671Z,81.20
2022-09-21T18:29:39.942Z,81.40
2022-09-21T18:32:44.265Z,81.40
2022-09-21T18:35:30.239Z,81.90
2022-09-21T18:38:17.322Z,82.10
2022-09-21T18:41:09.336Z,82.60
2022-09-21T18:44:00.581Z,82.90
2022-09-21T18:46:40.298Z,83.30
2022-09-21T18:49:17.591Z,83.60
2022-09-21T18:51:54.936Z,83.60
2022-09-21T18:54:27.344Z,84.30
2022-09-21T18:56:55.979Z,85.40
2022-09-21T18:59:26.471Z,85.20
2022-09-21T19:01:59.058Z,85.50
2022-09-21T19:04:27.892Z,85.10
2022-09-21T19:07:13.755Z,85.50
2022-09-21T19:10:14.134Z,85.20
2022-09-21T19:12:55.372Z,85.20
2022-09-21T19:15:58.977Z,85.40
2022-09-21T19:18:36.079Z,85.40
2022-09-21T19:21:23.248Z,84.80
2022-09-21T19:24:13.313Z,84.40
2022-09-21T19:27:09.932Z,84.10
2022-09-21T19:30:02.093Z,84.20
2022-09-21T19:32:39.296Z,83.90
2022-09-21T19:35:26.328Z,83.80
2022-09-21T19:37:59.601Z,84.10
2022-09-21T19:40:32.312Z,87.70
2022-09-21T19:43:30.177Z,84.60
2022-09-21T19:46:06.386Z,83.60
2022-09-21T19:48:46.596Z,84.00
2022-09-21T19:51:31.367Z,83.60
2022-09-21T19:54:19.456Z,83.60
2022-09-21T19:57:08.387Z,83.70
2022-09-21T19:59:45.410Z,83.90
2022-09-21T20:02:22.807Z,84.30
2022-09-21T20:04:57.268Z,84.40
2022-09-21T20:07:40.550Z,84.40
2022-09-21T20:10:13.938Z,84.80
2022-09-21T20:12:56.815Z,84.90
2022-09-21T20:15:31.477Z,85.50
2022-09-21T20:18:14.734Z,85.50
2022-09-21T20:20:43.085Z,85.90
2022-09-21T20:23:13.886Z,85.90
2022-09-21T20:25:52.802Z,85.80
2022-09-21T20:28:20.682Z,86.10
2022-09-21T20:30:50.084Z,86.30
2022-09-21T20:33:22.632Z,86.40
2022-09-21T20:35:52.916Z,86.60
2022-09-21T20:38:20.297Z,86.60
2022-09-21T20:40:47.764Z,86.40
2022-09-21T20:43:15.673Z,86.70
2022-09-21T20:45:47.729Z,86.30
2022-09-21T20:48:15.615Z,86.10
2022-09-21T20:50:48.962Z,86.10
2022-09-21T20:53:19.292Z,85.70
2022-09-21T20:55:57.768Z,86.00
2022-09-21T20:58:25.223Z,86.00
2022-09-21T21:00:57.970Z,85.90
2022-09-21T21:03:26.347Z,86.20
2022-09-21T21:05:53.745Z,85.40
2022-09-21T21:08:21.111Z,85.30
2022-09-21T21:10:48.467Z,85.30
2022-09-21T21:13:15.817Z,85.40
2022-09-21T21:15:43.197Z,85.60
2022-09-21T21:18:12.364Z,85.60
2022-09-21T21:20:41.038Z,85.80
2022-09-21T21:23:08.807Z,86.00
2022-09-21T21:25:36.285Z,85.70
2022-09-21T21:28:03.975Z,85.50
2022-09-21T21:30:31.557Z,85.50
2022-09-21T21:32:58.940Z,85.20
2022-09-21T21:35:26.382Z,84.90
2022-09-21T21:37:54.118Z,84.60
2022-09-21T21:40:21.563Z,84.70
2022-09-21T21:42:49.003Z,84.10
2022-09-21T21:45:16.712Z,84.00
2022-09-21T21:47:44.393Z,83.40
2022-09-21T21:50:11.999Z,83.80
2022-09-21T21:52:40.634Z,83.00
2022-09-21T21:55:08.559Z,82.90
2022-09-21T21:57:35.945Z,82.90
2022-09-21T22:00:06.151Z,83.20
2022-09-21T22:02:33.502Z,83.00
2022-09-21T22:05:01.018Z,83.60
2022-09-21T22:07:28.650Z,83.10
2022-09-21T22:09:56.034Z,83.40
2022-09-21T22:12:23.507Z,82.70
2022-09-21T22:14:50.864Z,82.60
2022-09-21T22:17:19.219Z,82.20
2022-09-21T22:19:47.079Z,81.90
2022-09-21T22:22:14.470Z,82.10
2022-09-21T22:24:41.834Z,82.10
2022-09-21T22:27:09.154Z,81.70
2022-09-21T22:29:36.486Z,81.90
2022-09-21T22:32:04.102Z,82.10
2022-09-21T22:34:31.574Z,82.20
2022-09-21T22:36:59.472Z,88.10
2022-09-21T22:39:27.268Z,90.60
2022-09-21T22:41:54.714Z,92.90
2022-09-21T22:44:22.068Z,91.40
2022-09-21T22:46:49.476Z,91.10
2022-09-21T22:49:17.063Z,89.70
2022-09-21T22:51:44.578Z,93.20
2022-09-21T22:54:11.953Z,90.90
2022-09-21T22:56:39.534Z,91.70
2022-09-21T22:59:07.112Z,92.70
2022-09-21T23:01:39.347Z,89.60
2022-09-21T23:04:12.398Z,95.40
2022-09-21T23:06:42.471Z,96.50
2022-09-21T23:09:15.298Z,95.60
2022-09-21T23:11:44.349Z,95.80
2022-09-21T23:14:12.869Z,95.20
2022-09-21T23:16:40.415Z,95.40
2022-09-21T23:19:15.558Z,96.10
2022-09-21T23:21:45.357Z,95.90
2022-09-21T23:24:13.258Z,96.30
2022-09-21T23:26:40.844Z,95.70
2022-09-21T23:29:12.667Z,94.80
2022-09-21T23:31:44.649Z,94.40
2022-09-21T23:34:14.162Z,93.80
2022-09-21T23:36:42.412Z,95.60
2022-09-21T23:39:12.047Z,96.80
2022-09-21T23:41:39.996Z,96.30
2022-09-21T23:44:07.386Z,96.50
2022-09-21T23:46:36.717Z,96.50
2022-09-21T23:49:05.189Z,94.60
2022-09-21T23:51:32.960Z,94.70
2022-09-21T23:54:00.785Z,95.10
2022-09-21T23:56:28.906Z,95.20
2022-09-21T23:58:56.734Z,96.50
